createdAt,value
2018-06-05T00:00:31.219Z,97630.25
2018-06-05T00:01:34.356Z,97627.41
2018-06-05T00:02:37.480Z,97624.41
2018-06-05T00:03:41.043Z,97624.98
2018-06-05T00:04:45.664Z,97622.39
2018-06-05T00:05:48.520Z,97623.64
2018-06-05T00:06:51.645Z,97624.94
2018-06-05T00:07:56.118Z,97629.98
2018-06-05T00:09:01.973Z,97626.59
2018-06-05T00:10:04.754Z,97627.61
2018-06-05T00:11:07.562Z,97623.45
2018-06-05T00:12:10.359Z,97622.52
2018-06-05T00:13:13.462Z,97625.06
2018-06-05T00:14:17.430Z,97627.86
2018-06-05T00:15:20.294Z,97621.45
2018-06-05T00:16:24.035Z,97621.99
2018-06-05T00:17:26.838Z,97622.13
2018-06-05T00:18:29.654Z,97619.98
2018-06-05T00:19:32.739Z,97617.43
2018-06-05T00:20:35.550Z,97620.78
2018-06-05T00:21:38.373Z,97621.88
2018-06-05T00:22:41.210Z,97615.97
2018-06-05T00:23:44.030Z,97616.52
2018-06-05T00:24:46.819Z,97617.77
2018-06-05T00:25:49.910Z,97610.95
2018-06-05T00:26:52.922Z,97613.34
2018-06-05T00:27:55.751Z,97612.84
2018-06-05T00:28:58.553Z,97612.89
2018-06-05T00:30:01.372Z,97609.09
2018-06-05T00:31:04.140Z,97611.95
2018-06-05T00:32:07.261Z,97613.48
2018-06-05T00:33:13.117Z,97610.97
2018-06-05T00:34:15.928Z,97610.56
2018-06-05T00:35:18.739Z,97612.92
2018-06-05T00:36:21.575Z,97614.03
2018-06-05T00:37:24.404Z,97615.02
2018-06-05T00:38:27.503Z,97614.37
2018-06-05T00:39:30.300Z,97611.27
2018-06-05T00:40:34.293Z,97611.54
2018-06-05T00:41:37.910Z,97614.50
2018-06-05T00:42:40.767Z,97613.72
2018-06-05T00:43:44.595Z,97615.34
2018-06-05T00:44:47.658Z,97610.09
2018-06-05T00:45:54.901Z,97611.89
2018-06-05T00:46:57.696Z,97607.49
2018-06-05T00:48:00.494Z,97609.72
2018-06-05T00:49:03.300Z,97606.81
2018-06-05T00:50:06.686Z,97604.59
2018-06-05T00:51:09.837Z,97611.75
2018-06-05T00:52:12.660Z,97606.22
2018-06-05T00:53:17.339Z,97618.25
2018-06-05T00:54:20.110Z,97615.50
2018-06-05T00:55:26.469Z,97616.05
2018-06-05T00:56:30.238Z,97616.64
2018-06-05T00:57:33.369Z,97622.34
2018-06-05T00:58:36.183Z,97617.22
2018-06-05T00:59:39.914Z,97614.03
2018-06-05T01:00:42.768Z,97619.88
2018-06-05T01:01:45.805Z,97617.02
2018-06-05T01:02:48.619Z,97615.14
2018-06-05T01:03:51.779Z,97616.95
2018-06-05T01:04:54.588Z,97612.38
2018-06-05T01:05:57.352Z,97611.28
2018-06-05T01:07:00.177Z,97620.95
2018-06-05T01:08:03.598Z,97613.77
2018-06-05T01:09:06.991Z,97618.60
2018-06-05T01:10:10.898Z,97611.84
2018-06-05T01:11:13.710Z,97613.13
2018-06-05T01:12:16.568Z,97616.42
2018-06-05T01:13:19.392Z,97617.39
2018-06-05T01:14:22.190Z,97616.52
2018-06-05T01:15:24.990Z,97614.14
2018-06-05T01:16:28.069Z,97615.95
2018-06-05T01:17:30.888Z,97620.78
2018-06-05T01:18:34.293Z,97618.09
2018-06-05T01:19:37.134Z,97621.34
2018-06-05T01:20:41.111Z,97617.13
2018-06-05T01:21:43.965Z,97617.26
2018-06-05T01:22:48.045Z,97615.78
2018-06-05T01:23:51.650Z,97612.77
2018-06-05T01:24:56.265Z,97620.76
2018-06-05T01:25:59.619Z,97622.77
2018-06-05T01:27:02.457Z,97617.61
2018-06-05T01:28:06.407Z,97621.02
2018-06-05T01:29:09.523Z,97616.45
2018-06-05T01:30:12.336Z,97614.10
2018-06-05T01:31:15.175Z,97615.77
2018-06-05T01:32:18.032Z,97613.24
2018-06-05T01:33:20.832Z,97612.72
2018-06-05T01:34:24.602Z,97612.98
2018-06-05T01:35:27.699Z,97610.36
2018-06-05T01:36:30.530Z,97612.72
2018-06-05T01:37:33.372Z,97614.24
2018-06-05T01:38:36.213Z,97607.94
2018-06-05T01:39:39.000Z,97611.42
2018-06-05T01:40:41.810Z,97609.73
2018-06-05T01:41:44.621Z,97609.81
2018-06-05T01:42:47.459Z,97616.29
2018-06-05T01:43:50.316Z,97616.45
2018-06-05T01:44:53.238Z,97619.92
2018-06-05T01:45:56.491Z,97619.62
2018-06-05T01:46:59.299Z,97618.39
2018-06-05T01:48:02.424Z,97621.34
2018-06-05T01:49:06.022Z,97622.13
2018-06-05T01:50:08.832Z,97618.88
2018-06-05T01:51:11.661Z,97616.94
2018-06-05T01:52:14.478Z,97619.64
2018-06-05T01:53:17.305Z,97615.01
2018-06-05T01:54:21.810Z,97619.72
2018-06-05T01:55:24.643Z,97616.80
2018-06-05T01:56:28.252Z,97618.67
2018-06-05T01:57:32.635Z,97614.45
2018-06-05T01:58:35.482Z,97617.91
2018-06-05T01:59:38.335Z,97619.42
2018-06-05T02:00:42.241Z,97617.28
2018-06-05T02:01:45.064Z,97620.11
2018-06-05T02:02:48.677Z,97617.77
2018-06-05T02:03:51.774Z,97620.11
2018-06-05T02:04:54.643Z,97627.36
2018-06-05T02:05:57.457Z,97623.83
2018-06-05T02:07:01.147Z,97619.61
2018-06-05T02:08:04.935Z,97626.27
2018-06-05T02:09:07.751Z,97623.63
2018-06-05T02:10:10.590Z,97620.39
2018-06-05T02:11:14.143Z,97623.55
2018-06-05T02:12:16.939Z,97624.38
2018-06-05T02:13:23.080Z,97624.84
2018-06-05T02:14:25.899Z,97623.75
2018-06-05T02:15:28.695Z,97626.79
2018-06-05T02:16:31.508Z,97624.03
2018-06-05T02:17:34.317Z,97622.87
2018-06-05T02:18:37.111Z,97621.18
2018-06-05T02:19:40.244Z,97622.97
2018-06-05T02:20:43.041Z,97625.22
2018-06-05T02:21:45.862Z,97622.41
2018-06-05T02:22:48.668Z,97620.41
2018-06-05T02:23:51.497Z,97630.12
2018-06-05T02:24:54.299Z,97629.78
2018-06-05T02:25:57.392Z,97623.92
2018-06-05T02:27:00.568Z,97624.27
2018-06-05T02:28:03.393Z,97627.11
2018-06-05T02:29:06.221Z,97626.84
2018-06-05T02:30:10.044Z,97627.18
2018-06-05T02:31:13.473Z,97630.80
2018-06-05T02:32:17.526Z,97630.98
2018-06-05T02:33:20.334Z,97628.67
2018-06-05T02:34:23.130Z,97631.27
2018-06-05T02:35:26.128Z,97634.44
2018-06-05T02:36:29.181Z,97626.41
2018-06-05T02:37:31.999Z,97633.31
2018-06-05T02:38:35.107Z,97635.53
2018-06-05T02:39:37.952Z,97629.55
2018-06-05T02:40:40.795Z,97639.22
2018-06-05T02:41:43.597Z,97638.22
2018-06-05T02:42:46.405Z,97634.41
2018-06-05T02:43:49.221Z,97631.98
2018-06-05T02:44:53.932Z,97642.69
2018-06-05T02:45:56.825Z,97636.84
2018-06-05T02:46:59.639Z,97636.66
2018-06-05T02:48:02.452Z,97646.17
2018-06-05T02:49:05.396Z,97637.58
2018-06-05T02:50:08.211Z,97639.84
2018-06-05T02:51:11.426Z,97640.34
2018-06-05T02:52:14.246Z,97640.19
2018-06-05T02:53:17.031Z,97639.63
2018-06-05T02:54:19.820Z,97638.20
2018-06-05T02:55:22.599Z,97639.28
2018-06-05T02:56:25.400Z,97643.02
2018-06-05T02:57:28.679Z,97639.45
2018-06-05T02:58:31.500Z,97641.60
2018-06-05T02:59:34.323Z,97637.22
2018-06-05T03:00:37.119Z,97635.48
2018-06-05T03:01:39.950Z,97641.98
2018-06-05T03:02:42.761Z,97647.15
2018-06-05T03:03:45.884Z,97644.20
2018-06-05T03:04:48.680Z,97645.00
2018-06-05T03:05:51.475Z,97646.53
2018-06-05T03:06:54.268Z,97648.77
2018-06-05T03:07:57.171Z,97655.13
2018-06-05T03:09:00.966Z,97646.34
2018-06-05T03:10:03.884Z,97652.95
2018-06-05T03:11:06.746Z,97648.34
2018-06-05T03:12:09.600Z,97660.29
2018-06-05T03:13:12.980Z,97654.76
2018-06-05T03:14:15.783Z,97654.55
2018-06-05T03:15:19.330Z,97660.36
2018-06-05T03:16:22.127Z,97664.64
2018-06-05T03:17:24.922Z,97663.27
2018-06-05T03:18:27.792Z,97661.08
2018-06-05T03:19:31.224Z,97659.67
2018-06-05T03:20:34.892Z,97662.42
2018-06-05T03:21:38.007Z,97664.78
2018-06-05T03:22:40.809Z,97665.73
2018-06-05T03:23:43.681Z,97668.13
2018-06-05T03:24:46.501Z,97669.87
2018-06-05T03:25:49.321Z,97672.87
2018-06-05T03:26:52.162Z,97676.13
2018-06-05T03:27:55.701Z,97675.96
2018-06-05T03:28:58.939Z,97678.12
2018-06-05T03:30:01.795Z,97676.34
2018-06-05T03:31:04.613Z,97677.48
2018-06-05T03:32:07.438Z,97675.53
2018-06-05T03:33:10.275Z,97671.34
2018-06-05T03:34:13.648Z,97673.67
2018-06-05T03:35:17.671Z,97671.34
2018-06-05T03:36:21.160Z,97668.22
2018-06-05T03:37:23.977Z,97671.22
2018-06-05T03:38:26.829Z,97674.08
2018-06-05T03:39:29.628Z,97671.98
2018-06-05T03:40:32.793Z,97669.63
2018-06-05T03:41:35.646Z,97674.68
2018-06-05T03:42:38.532Z,97676.80
2018-06-05T03:43:41.313Z,97676.69
2018-06-05T03:44:44.731Z,97680.47
2018-06-05T03:45:47.547Z,97680.25
2018-06-05T03:46:50.697Z,97678.81
2018-06-05T03:47:53.580Z,97680.87
2018-06-05T03:48:56.379Z,97677.34
2018-06-05T03:49:59.755Z,97677.33
2018-06-05T03:51:02.589Z,97674.25
2018-06-05T03:52:05.425Z,97676.59
2018-06-05T03:53:08.507Z,97677.80
2018-06-05T03:54:11.312Z,97683.61
2018-06-05T03:55:14.107Z,97689.20
2018-06-05T03:56:18.082Z,97684.45
2018-06-05T03:57:20.915Z,97681.77
2018-06-05T03:58:23.746Z,97689.48
2018-06-05T03:59:28.045Z,97693.41
2018-06-05T04:00:30.862Z,97694.39
2018-06-05T04:01:33.684Z,97696.70
2018-06-05T04:02:37.589Z,97697.28
2018-06-05T04:03:40.389Z,97695.95
2018-06-05T04:04:43.197Z,97697.80
2018-06-05T04:05:46.317Z,97691.92
2018-06-05T04:06:49.139Z,97694.73
2018-06-05T04:07:51.957Z,97700.31
2018-06-05T04:08:54.789Z,97694.10
2018-06-05T04:09:58.348Z,97698.25
2018-06-05T04:11:01.155Z,97701.11
2018-06-05T04:12:04.420Z,97695.66
2018-06-05T04:13:07.254Z,97704.30
2018-06-05T04:14:10.067Z,97700.97
2018-06-05T04:15:13.895Z,97698.58
2018-06-05T04:16:17.641Z,97704.50
2018-06-05T04:17:20.447Z,97702.68
2018-06-05T04:18:23.600Z,97701.66
2018-06-05T04:19:26.457Z,97706.80
2018-06-05T04:20:29.255Z,97710.19
2018-06-05T04:21:33.530Z,97701.11
2018-06-05T04:22:36.448Z,97702.30
2018-06-05T04:23:39.257Z,97704.97
2018-06-05T04:24:42.337Z,97705.77
2018-06-05T04:25:45.734Z,97707.69
2018-06-05T04:26:48.591Z,97708.39
2018-06-05T04:27:51.961Z,97708.02
2018-06-05T04:28:54.815Z,97707.63
2018-06-05T04:29:57.635Z,97708.38
2018-06-05T04:31:00.804Z,97710.48
2018-06-05T04:32:03.604Z,97708.66
2018-06-05T04:33:06.396Z,97708.55
2018-06-05T04:34:09.260Z,97711.59
2018-06-05T04:35:12.058Z,97707.09
2018-06-05T04:36:16.325Z,97709.38
2018-06-05T04:37:19.429Z,97697.57
2018-06-05T04:38:25.230Z,97707.57
2018-06-05T04:39:30.079Z,97702.55
2018-06-05T04:40:32.884Z,97710.43
2018-06-05T04:41:35.708Z,97706.28
2018-06-05T04:42:38.553Z,97704.50
2018-06-05T04:43:42.720Z,97703.13
2018-06-05T04:44:46.586Z,97705.14
2018-06-05T04:45:49.948Z,97701.13
2018-06-05T04:46:52.770Z,97708.02
2018-06-05T04:47:55.580Z,97709.27
2018-06-05T04:48:58.439Z,97704.48
2018-06-05T04:50:01.738Z,97700.19
2018-06-05T04:51:04.564Z,97704.62
2018-06-05T04:52:07.349Z,97707.00
2018-06-05T04:53:10.251Z,97704.05
2018-06-05T04:54:13.054Z,97707.94
2018-06-05T04:55:15.888Z,97710.28
2018-06-05T04:56:19.521Z,97702.45
2018-06-05T04:57:24.066Z,97708.23
2018-06-05T04:58:26.867Z,97706.59
2018-06-05T04:59:29.675Z,97708.31
2018-06-05T05:00:33.296Z,97713.59
2018-06-05T05:01:36.462Z,97712.63
2018-06-05T05:02:39.291Z,97713.93
2018-06-05T05:03:42.793Z,97708.55
2018-06-05T05:04:45.720Z,97710.22
2018-06-05T05:05:48.568Z,97714.41
2018-06-05T05:06:52.364Z,97709.56
2018-06-05T05:07:55.431Z,97709.25
2018-06-05T05:08:58.266Z,97706.15
2018-06-05T05:10:01.082Z,97705.39
2018-06-05T05:11:03.927Z,97709.83
2018-06-05T05:12:06.767Z,97710.81
2018-06-05T05:13:09.603Z,97711.95
2018-06-05T05:14:16.243Z,97711.41
2018-06-05T05:15:19.096Z,97703.88
2018-06-05T05:16:21.940Z,97707.66
2018-06-05T05:17:24.917Z,97704.97
2018-06-05T05:18:27.763Z,97701.05
2018-06-05T05:19:30.573Z,97699.52
2018-06-05T05:20:34.185Z,97697.38
2018-06-05T05:21:37.021Z,97701.30
2018-06-05T05:22:39.888Z,97704.97
2018-06-05T05:23:42.716Z,97700.53
2018-06-05T05:24:45.825Z,97701.38
2018-06-05T05:25:48.720Z,97708.36
2018-06-05T05:26:52.743Z,97704.35
2018-06-05T05:27:55.613Z,97709.80
2018-06-05T05:28:58.429Z,97710.17
2018-06-05T05:30:01.277Z,97709.18
2018-06-05T05:31:05.164Z,97707.94
2018-06-05T05:32:07.976Z,97708.42
2018-06-05T05:33:11.266Z,97706.22
2018-06-05T05:34:14.878Z,97708.02
2018-06-05T05:35:19.326Z,97708.28
2018-06-05T05:36:22.771Z,97707.59
2018-06-05T05:37:25.599Z,97707.05
2018-06-05T05:38:29.961Z,97707.26
2018-06-05T05:39:32.758Z,97713.33
2018-06-05T05:40:35.602Z,97709.11
2018-06-05T05:41:38.415Z,97707.47
2018-06-05T05:42:41.255Z,97710.00
2018-06-05T05:43:44.074Z,97710.00
2018-06-05T05:44:46.884Z,97705.51
2018-06-05T05:45:49.788Z,97708.98
2018-06-05T05:46:52.621Z,97702.95
2018-06-05T05:47:55.508Z,97702.84
2018-06-05T05:48:58.518Z,97710.30
2018-06-05T05:50:02.375Z,97710.28
2018-06-05T05:51:05.181Z,97716.67
2018-06-05T05:52:08.000Z,97717.06
2018-06-05T05:53:10.824Z,97708.55
2018-06-05T05:54:14.862Z,97711.68
2018-06-05T05:55:17.672Z,97719.22
2018-06-05T05:56:20.950Z,97713.69
2018-06-05T05:57:23.779Z,97720.13
2018-06-05T05:58:26.620Z,97714.17
2018-06-05T05:59:29.424Z,97716.31
2018-06-05T06:00:33.362Z,97716.45
2018-06-05T06:01:36.203Z,97714.99
2018-06-05T06:02:39.280Z,97718.16
2018-06-05T06:03:42.922Z,97711.58
2018-06-05T06:04:45.739Z,97718.94
2018-06-05T06:05:48.558Z,97712.41
2018-06-05T06:06:51.410Z,97711.03
2018-06-05T06:07:54.268Z,97718.78
2018-06-05T06:08:57.419Z,97725.34
2018-06-05T06:10:00.236Z,97718.09
2018-06-05T06:11:03.707Z,97719.10
2018-06-05T06:12:06.576Z,97723.95
2018-06-05T06:13:10.242Z,97722.16
2018-06-05T06:14:13.071Z,97723.47
2018-06-05T06:15:16.057Z,97710.94
2018-06-05T06:16:20.407Z,97717.62
2018-06-05T06:17:23.236Z,97715.92
2018-06-05T06:18:26.065Z,97721.53
2018-06-05T06:19:29.560Z,97719.27
2018-06-05T06:20:32.745Z,97720.60
2018-06-05T06:21:36.261Z,97723.86
2018-06-05T06:22:39.933Z,97724.66
2018-06-05T06:23:42.908Z,97726.92
2018-06-05T06:24:45.785Z,97727.43
2018-06-05T06:25:48.601Z,97729.65
2018-06-05T06:26:51.846Z,97732.47
2018-06-05T06:27:54.686Z,97727.83
2018-06-05T06:28:57.564Z,97725.55
2018-06-05T06:30:00.385Z,97718.39
2018-06-05T06:31:03.239Z,97722.86
2018-06-05T06:32:06.072Z,97722.84
2018-06-05T06:33:09.303Z,97728.49
2018-06-05T06:34:12.091Z,97729.20
2018-06-05T06:35:14.910Z,97729.02
2018-06-05T06:36:17.708Z,97727.64
2018-06-05T06:37:20.646Z,97728.77
2018-06-05T06:38:23.486Z,97729.84
2018-06-05T06:39:26.632Z,97728.73
2018-06-05T06:40:29.546Z,97734.52
2018-06-05T06:41:32.455Z,97730.20
2018-06-05T06:42:35.274Z,97726.39
2018-06-05T06:43:38.811Z,97729.39
2018-06-05T06:44:42.642Z,97730.84
2018-06-05T06:45:45.782Z,97733.88
2018-06-05T06:46:48.710Z,97726.76
2018-06-05T06:47:51.546Z,97732.94
2018-06-05T06:48:55.133Z,97730.14
2018-06-05T06:49:57.878Z,97731.84
2018-06-05T06:51:00.686Z,97732.81
2018-06-05T06:52:04.668Z,97736.41
2018-06-05T06:53:07.471Z,97732.59
2018-06-05T06:54:10.342Z,97736.09
2018-06-05T06:55:13.211Z,97732.36
2018-06-05T06:56:16.009Z,97734.04
2018-06-05T06:57:19.503Z,97732.42
2018-06-05T06:58:22.657Z,97730.78
2018-06-05T06:59:25.461Z,97736.70
2018-06-05T07:00:28.295Z,97735.66
2018-06-05T07:01:31.128Z,97726.16
2018-06-05T07:02:34.001Z,97730.86
2018-06-05T07:03:36.942Z,97732.05
2018-06-05T07:04:43.198Z,97729.91
2018-06-05T07:05:46.531Z,97736.98
2018-06-05T07:06:49.320Z,97734.69
2018-06-05T07:07:52.112Z,97740.77
2018-06-05T07:08:55.039Z,97735.69
2018-06-05T07:09:57.992Z,97735.80
2018-06-05T07:11:01.865Z,97733.32
2018-06-05T07:12:05.391Z,97742.30
2018-06-05T07:13:08.207Z,97735.83
2018-06-05T07:14:11.066Z,97735.06
2018-06-05T07:15:13.969Z,97737.91
2018-06-05T07:16:18.423Z,97743.95
2018-06-05T07:17:21.772Z,97744.43
2018-06-05T07:18:24.611Z,97739.31
2018-06-05T07:19:28.561Z,97737.19
2018-06-05T07:20:33.096Z,97735.53
2018-06-05T07:21:36.557Z,97729.22
2018-06-05T07:22:40.071Z,97738.48
2018-06-05T07:23:43.273Z,97737.34
2018-06-05T07:24:46.112Z,97738.86
2018-06-05T07:25:48.964Z,97739.92
2018-06-05T07:26:51.819Z,97735.45
2018-06-05T07:27:54.644Z,97732.68
2018-06-05T07:30:00.555Z,97733.11
2018-06-05T07:31:03.435Z,97736.39
2018-06-05T07:32:06.248Z,97731.92
2018-06-05T07:33:11.124Z,97735.89
2018-06-05T07:34:15.045Z,97741.41
2018-06-05T07:35:17.875Z,97735.20
2018-06-05T07:36:21.025Z,97736.74
2018-06-05T07:37:23.958Z,97734.08
2018-06-05T07:38:26.757Z,97729.26
2018-06-05T07:39:31.014Z,97732.52
2018-06-05T07:40:34.507Z,97727.23
2018-06-05T07:41:38.358Z,97731.30
2018-06-05T07:42:42.655Z,97732.86
2018-06-05T07:43:47.293Z,97732.53
2018-06-05T07:44:50.786Z,97731.55
2018-06-05T07:45:54.285Z,97728.91
2018-06-05T07:46:57.237Z,97732.23
2018-06-05T07:48:00.232Z,97730.36
2018-06-05T07:49:03.737Z,97729.75
2018-06-05T07:50:07.540Z,97731.73
2018-06-05T07:51:14.638Z,97729.80
2018-06-05T07:52:18.998Z,97727.58
2018-06-05T07:53:22.587Z,97727.58
2018-06-05T07:54:25.405Z,97727.34
2018-06-05T07:55:28.420Z,97729.60
2018-06-05T07:56:31.421Z,97731.40
2018-06-05T07:57:35.379Z,97727.03
2018-06-05T07:58:40.554Z,97732.67
2018-06-05T07:59:43.594Z,97731.50
2018-06-05T08:00:46.488Z,97730.41
2018-06-05T08:01:49.896Z,97731.05
2018-06-05T08:02:53.281Z,97737.13
2018-06-05T08:03:56.495Z,97733.62
2018-06-05T08:05:01.244Z,97733.06
2018-06-05T08:06:07.302Z,97736.02
2018-06-05T08:07:12.672Z,97734.75
2018-06-05T08:08:19.523Z,97725.88
2018-06-05T08:09:23.183Z,97732.04
2018-06-05T08:10:26.052Z,97734.81
2018-06-05T08:11:29.947Z,97731.36
2018-06-05T08:12:32.827Z,97724.14
2018-06-05T08:13:36.441Z,97727.52
2018-06-05T08:14:39.352Z,97723.45
2018-06-05T08:15:43.944Z,97731.79
2018-06-05T08:16:46.748Z,97722.03
2018-06-05T08:17:49.746Z,97724.70
2018-06-05T08:18:54.919Z,97726.79
2018-06-05T08:19:57.754Z,97725.09
2018-06-05T08:21:00.724Z,97725.16
2018-06-05T08:22:04.041Z,97723.45
2018-06-05T08:23:06.947Z,97721.16
2018-06-05T08:24:10.911Z,97727.22
2018-06-05T08:25:14.326Z,97726.88
2018-06-05T08:26:18.812Z,97725.27
2018-06-05T08:27:21.801Z,97721.16
2018-06-05T08:28:24.630Z,97733.19
2018-06-05T08:29:28.117Z,97729.87
2018-06-05T08:30:32.639Z,97721.25
2018-06-05T08:31:36.997Z,97723.84
2018-06-05T08:32:39.817Z,97729.66
2018-06-05T08:33:42.689Z,97727.54
2018-06-05T08:34:45.613Z,97726.87
2018-06-05T08:35:48.615Z,97724.30
2018-06-05T08:36:52.200Z,97722.33
2018-06-05T08:37:55.995Z,97728.09
2018-06-05T08:38:58.931Z,97724.91
2018-06-05T08:40:02.480Z,97731.78
2018-06-05T08:41:05.319Z,97733.05
2018-06-05T08:42:09.111Z,97728.38
2018-06-05T08:43:11.942Z,97731.70
2018-06-05T08:44:15.241Z,97733.38
2018-06-05T08:45:18.219Z,97725.94
2018-06-05T08:46:21.211Z,97736.06
2018-06-05T08:47:24.044Z,97724.65
2018-06-05T08:48:29.924Z,97722.22
2018-06-05T08:49:32.777Z,97724.70
2018-06-05T08:50:37.275Z,97727.66
2018-06-05T08:51:40.747Z,97724.75
2018-06-05T08:52:43.580Z,97729.66
2018-06-05T08:53:46.416Z,97730.16
2018-06-05T08:54:49.327Z,97730.78
2018-06-05T08:55:52.838Z,97724.34
2018-06-05T08:56:56.192Z,97726.22
2018-06-05T08:58:00.170Z,97723.48
2018-06-05T08:59:03.019Z,97722.61
2018-06-05T09:00:05.893Z,97727.97
2018-06-05T09:01:10.306Z,97725.91
2018-06-05T09:02:14.043Z,97725.07
2018-06-05T09:03:17.376Z,97726.69
2018-06-05T09:04:22.010Z,97724.01
2018-06-05T09:05:24.843Z,97728.59
2018-06-05T09:06:27.692Z,97729.14
2018-06-05T09:07:31.575Z,97727.83
2018-06-05T09:08:35.651Z,97726.78
2018-06-05T09:09:38.947Z,97723.12
2018-06-05T09:10:42.331Z,97728.70
2018-06-05T09:11:45.197Z,97727.88
2018-06-05T09:12:48.080Z,97732.42
2018-06-05T09:13:51.932Z,97726.78
2018-06-05T09:14:54.781Z,97732.30
2018-06-05T09:15:58.019Z,97729.70
2018-06-05T09:17:01.498Z,97725.53
2018-06-05T09:18:04.354Z,97730.73
2018-06-05T09:19:07.424Z,97727.63
2018-06-05T09:20:10.284Z,97724.36
2018-06-05T09:21:13.158Z,97726.55
2018-06-05T09:22:17.513Z,97725.78
2018-06-05T09:23:20.570Z,97729.78
2018-06-05T09:24:23.436Z,97726.49
2018-06-05T09:25:27.405Z,97726.88
2018-06-05T09:26:30.269Z,97732.08
2018-06-05T09:27:33.677Z,97729.33
2018-06-05T09:28:36.939Z,97727.06
2018-06-05T09:29:39.779Z,97727.59
2018-06-05T09:30:42.636Z,97736.16
2018-06-05T09:31:46.514Z,97730.91
2018-06-05T09:32:49.647Z,97731.63
2018-06-05T09:33:52.630Z,97734.05
2018-06-05T09:34:56.878Z,97735.78
2018-06-05T09:36:02.701Z,97733.41
2018-06-05T09:37:05.545Z,97727.36
2018-06-05T09:38:09.049Z,97732.94
2018-06-05T09:39:12.967Z,97735.34
2018-06-05T09:40:16.579Z,97736.14
2018-06-05T09:41:19.897Z,97735.91
2018-06-05T09:42:22.833Z,97734.63
2018-06-05T09:43:26.256Z,97729.09
2018-06-05T09:44:29.855Z,97728.58
2018-06-05T09:45:32.656Z,97729.61
2018-06-05T09:46:35.508Z,97726.60
2018-06-05T09:47:41.695Z,97732.71
2018-06-05T09:48:45.063Z,97729.28
2018-06-05T09:49:47.928Z,97725.20
2018-06-05T09:50:52.117Z,97720.00
2018-06-05T09:51:54.979Z,97722.94
2018-06-05T09:52:58.705Z,97724.02
2018-06-05T09:54:02.163Z,97726.55
2018-06-05T09:55:07.386Z,97720.64
2018-06-05T09:56:11.277Z,97717.87
2018-06-05T09:57:14.329Z,97726.61
2018-06-05T09:58:19.063Z,97718.80
2018-06-05T09:59:21.853Z,97724.43
2018-06-05T10:00:30.590Z,97724.84
2018-06-05T10:01:33.481Z,97722.09
2018-06-05T10:02:36.289Z,97716.81
2018-06-05T10:03:40.445Z,97714.98
2018-06-05T10:04:45.173Z,97712.84
2018-06-05T10:05:48.003Z,97715.74
2018-06-05T10:06:51.277Z,97716.71
2018-06-05T10:07:54.086Z,97717.84
2018-06-05T10:08:57.796Z,97716.33
2018-06-05T10:10:00.630Z,97709.97
2018-06-05T10:11:03.929Z,97713.52
2018-06-05T10:12:06.772Z,97715.31
2018-06-05T10:13:09.579Z,97712.50
2018-06-05T10:14:12.483Z,97711.43
2018-06-05T10:15:15.831Z,97715.64
2018-06-05T10:16:18.874Z,97710.42
2018-06-05T10:17:23.804Z,97705.83
2018-06-05T10:18:26.680Z,97714.11
2018-06-05T10:19:29.940Z,97712.17
2018-06-05T10:20:36.935Z,97703.69
2018-06-05T10:21:39.794Z,97703.56
2018-06-05T10:22:42.662Z,97705.47
2018-06-05T10:23:46.012Z,97706.87
2018-06-05T10:25:57.398Z,97703.63
2018-06-05T10:27:00.283Z,97710.09
2018-06-05T10:28:03.177Z,97699.63
2018-06-05T10:29:06.566Z,97707.81
2018-06-05T10:30:10.983Z,97698.93
2018-06-05T10:31:14.959Z,97694.78
2018-06-05T10:32:19.279Z,97704.36
2018-06-05T10:33:22.148Z,97700.33
2018-06-05T10:34:24.987Z,97700.94
2018-06-05T10:35:28.641Z,97698.81
2018-06-05T10:36:33.598Z,97695.55
2018-06-05T10:37:36.484Z,97696.19
2018-06-05T10:38:39.357Z,97691.07
2018-06-05T10:39:44.288Z,97687.81
2018-06-05T10:40:49.202Z,97693.95
2018-06-05T10:41:54.620Z,97690.78
2018-06-05T10:42:58.595Z,97693.83
2018-06-05T10:44:03.037Z,97690.23
2018-06-05T10:45:06.586Z,97691.76
2018-06-05T10:46:10.600Z,97687.91
2018-06-05T10:47:13.492Z,97687.38
2018-06-05T10:48:16.640Z,97687.20
2018-06-05T10:49:20.940Z,97689.76
2018-06-05T10:50:23.809Z,97686.32
2018-06-05T10:51:28.414Z,97695.73
2018-06-05T10:52:33.188Z,97692.55
2018-06-05T10:53:37.454Z,97690.12
2018-06-05T10:54:42.165Z,97678.39
2018-06-05T10:55:45.483Z,97681.11
2018-06-05T10:56:50.910Z,97682.27
2018-06-05T10:59:10.918Z,97688.06
2018-06-05T11:00:14.974Z,97682.36
2018-06-05T11:01:19.207Z,97678.52
2018-06-05T11:02:24.077Z,97679.81
2018-06-05T11:03:26.941Z,97682.24
2018-06-05T11:04:29.762Z,97689.18
2018-06-05T11:05:32.629Z,97676.91
2018-06-05T11:06:35.415Z,97670.94
2018-06-05T11:07:38.322Z,97681.75
2018-06-05T11:08:42.935Z,97686.34
2018-06-05T11:09:45.796Z,97676.72
2018-06-05T11:10:48.635Z,97680.59
2018-06-05T11:11:52.496Z,97678.70
2018-06-05T11:12:55.327Z,97673.35
2018-06-05T11:13:59.698Z,97679.23
2018-06-05T11:15:02.560Z,97679.59
2018-06-05T11:16:08.683Z,97681.20
2018-06-05T11:17:15.397Z,97678.35
2018-06-05T11:18:18.742Z,97679.77
2018-06-05T11:19:22.739Z,97677.73
2018-06-05T11:20:27.657Z,97673.96
2018-06-05T11:21:31.444Z,97671.47
2018-06-05T11:22:37.900Z,97672.42
2018-06-05T11:23:40.739Z,97670.51
2018-06-05T11:24:45.652Z,97672.64
2018-06-05T11:25:48.780Z,97670.16
2018-06-05T11:26:55.247Z,97670.45
2018-06-05T11:27:58.916Z,97670.84
2018-06-05T11:29:01.757Z,97666.14
2018-06-05T11:30:04.584Z,97662.87
2018-06-05T11:31:08.913Z,97661.34
2018-06-05T11:32:12.841Z,97658.56
2018-06-05T11:33:19.522Z,97655.31
2018-06-05T11:34:24.987Z,97660.28
2018-06-05T11:35:28.731Z,97652.52
2018-06-05T11:36:32.451Z,97654.98
2018-06-05T11:37:35.306Z,97653.13
2018-06-05T11:38:38.308Z,97654.64
2018-06-05T11:39:42.493Z,97653.07
2018-06-05T11:40:45.354Z,97659.08
2018-06-05T11:41:48.243Z,97656.50
2018-06-05T11:42:52.463Z,97659.13
2018-06-05T11:43:56.396Z,97657.30
2018-06-05T11:45:00.701Z,97655.04
2018-06-05T11:46:03.959Z,97651.16
2018-06-05T11:47:08.608Z,97653.09
2018-06-05T11:48:11.506Z,97656.72
2018-06-05T11:49:15.539Z,97653.99
2018-06-05T11:50:23.368Z,97649.08
2018-06-05T11:51:30.539Z,97644.91
2018-06-05T11:52:34.741Z,97647.27
2018-06-05T11:53:38.743Z,97650.24
2018-06-05T11:54:43.095Z,97651.95
2018-06-05T11:55:48.332Z,97652.62
2018-06-05T11:56:51.276Z,97644.52
2018-06-05T11:57:54.766Z,97645.42
2018-06-05T11:58:58.423Z,97650.18
2018-06-05T12:00:01.389Z,97640.44
2018-06-05T12:01:05.926Z,97639.90
2018-06-05T12:02:08.746Z,97646.56
2018-06-05T12:03:12.389Z,97651.31
2018-06-05T12:04:16.391Z,97647.97
2018-06-05T12:05:19.988Z,97644.45
2018-06-05T12:06:23.824Z,97644.01
2018-06-05T12:07:29.385Z,97640.95
2018-06-05T12:08:32.226Z,97638.32
2018-06-05T12:09:35.319Z,97639.05
2018-06-05T12:10:38.149Z,97639.88
2018-06-05T12:11:42.627Z,97636.91
2018-06-05T12:12:47.623Z,97634.48
2018-06-05T12:13:52.932Z,97632.36
2018-06-05T12:14:55.882Z,97635.81
2018-06-05T12:15:59.762Z,97630.50
2018-06-05T12:17:03.607Z,97631.04
2018-06-05T12:18:06.421Z,97631.62
2018-06-05T12:19:10.671Z,97628.04
2018-06-05T12:20:15.669Z,97626.73
2018-06-05T12:21:19.450Z,97623.73
2018-06-05T12:22:23.337Z,97622.84
2018-06-05T12:23:26.175Z,97621.53
2018-06-05T12:24:30.125Z,97621.13
2018-06-05T12:25:33.022Z,97616.96
2018-06-05T12:26:37.513Z,97619.73
2018-06-05T12:27:40.967Z,97623.75